createdAt,value
2018-08-25T00:01:26.541Z,5.77
2018-08-25T00:03:55.130Z,6.03
2018-08-25T00:06:23.611Z,1.73
2018-08-25T00:08:52.266Z,4.17
2018-08-25T00:11:20.754Z,2.70
2018-08-25T00:13:49.478Z,7.80
2018-08-25T00:16:18.108Z,4.60
2018-08-25T00:18:46.602Z,2.40
2018-08-25T00:21:15.131Z,3.40
2018-08-25T00:23:43.760Z,4.13
2018-08-25T00:26:12.470Z,2.63
2018-08-25T00:28:40.952Z,4.17
2018-08-25T00:31:14.892Z,2.40
2018-08-25T00:33:43.543Z,3.60
2018-08-25T00:36:12.447Z,3.53
2018-08-25T00:38:39.900Z,2.93
2018-08-25T00:41:08.399Z,3.70
2018-08-25T00:43:36.946Z,3.97
2018-08-25T00:46:05.541Z,3.17
2018-08-25T00:48:34.166Z,4.50
2018-08-25T00:51:03.006Z,2.50
2018-08-25T00:53:31.756Z,2.77
2018-08-25T00:56:00.266Z,2.13
2018-08-25T00:58:28.922Z,3.63
2018-08-25T01:00:57.460Z,3.83
2018-08-25T01:03:26.543Z,5.13
2018-08-25T01:05:55.056Z,3.90
2018-08-25T01:08:24.021Z,2.40
2018-08-25T01:10:52.506Z,3.90
2018-08-25T01:13:21.186Z,2.27
2018-08-25T01:15:49.735Z,2.30
2018-08-25T01:18:18.278Z,4.57
2018-08-25T01:20:48.669Z,3.70
2018-08-25T01:23:17.243Z,2.97
2018-08-25T01:25:45.906Z,2.90
2018-08-25T01:28:14.480Z,2.00
2018-08-25T01:30:43.001Z,3.00
2018-08-25T01:33:11.801Z,3.43
2018-08-25T01:35:40.296Z,5.20
2018-08-25T01:38:09.021Z,3.50
2018-08-25T01:40:37.665Z,2.80
2018-08-25T01:43:06.220Z,3.73
2018-08-25T01:45:34.808Z,2.27
2018-08-25T01:48:03.314Z,3.73
2018-08-25T01:50:31.771Z,2.30
2018-08-25T01:53:00.293Z,4.07
2018-08-25T01:55:28.855Z,4.27
2018-08-25T01:57:57.388Z,2.37
2018-08-25T02:00:25.879Z,4.80
2018-08-25T02:02:54.692Z,3.93
2018-08-25T02:05:24.378Z,4.80
2018-08-25T02:07:52.871Z,4.30
2018-08-25T02:10:21.446Z,4.13
2018-08-25T02:12:50.216Z,2.87
2018-08-25T02:15:18.860Z,6.67
2018-08-25T02:17:47.422Z,3.63
2018-08-25T02:20:16.244Z,4.00
2018-08-25T02:22:46.186Z,5.70
2018-08-25T02:25:14.896Z,3.93
2018-08-25T02:27:43.380Z,5.10
2018-08-25T02:30:11.956Z,4.13
2018-08-25T02:32:40.564Z,3.40
2018-08-25T02:35:09.282Z,4.27
2018-08-25T02:37:37.840Z,3.97
2018-08-25T02:40:06.698Z,5.23
2018-08-25T02:42:35.816Z,4.10
2018-08-25T02:45:04.875Z,4.00
2018-08-25T02:47:34.149Z,5.27
2018-08-25T02:50:02.843Z,4.63
2018-08-25T02:52:31.686Z,5.23
2018-08-25T02:55:00.205Z,6.43
2018-08-25T02:57:28.747Z,7.27
2018-08-25T02:59:57.261Z,4.80
2018-08-25T03:02:25.734Z,6.47
2018-08-25T03:04:54.321Z,4.57
2018-08-25T03:07:28.971Z,5.17
2018-08-25T03:09:57.572Z,3.63
2018-08-25T03:12:26.207Z,4.57
2018-08-25T03:14:54.944Z,3.93
2018-08-25T03:17:23.766Z,4.00
2018-08-25T03:19:52.827Z,6.20
2018-08-25T03:22:21.381Z,5.77
2018-08-25T03:24:50.058Z,6.77
2018-08-25T03:27:19.190Z,5.73
2018-08-25T03:29:47.985Z,4.73
2018-08-25T03:32:16.529Z,6.70
2018-08-25T03:34:45.013Z,7.13
2018-08-25T03:37:13.690Z,6.20
2018-08-25T03:39:42.189Z,6.93
2018-08-25T03:42:10.673Z,5.90
2018-08-25T03:44:39.424Z,6.17
2018-08-25T03:47:07.886Z,8.03
2018-08-25T03:49:37.314Z,6.73
2018-08-25T03:52:06.018Z,6.13
2018-08-25T03:54:34.492Z,5.17
2018-08-25T03:57:03.269Z,7.50
2018-08-25T03:59:31.761Z,7.77
2018-08-25T04:02:00.301Z,5.87
2018-08-25T04:04:28.916Z,5.43
2018-08-25T04:06:57.423Z,7.07
2018-08-25T04:09:26.237Z,6.20
2018-08-25T04:11:54.813Z,4.93
2018-08-25T04:14:23.303Z,7.63
2018-08-25T04:16:52.107Z,5.53
2018-08-25T04:19:21.931Z,6.47
2018-08-25T04:21:51.424Z,6.30
2018-08-25T04:24:19.997Z,9.43
2018-08-25T04:26:48.539Z,5.53
2018-08-25T04:29:17.090Z,6.60
2018-08-25T04:31:45.610Z,4.80
2018-08-25T04:34:14.222Z,5.83
2018-08-25T04:36:42.842Z,10.63
2018-08-25T04:39:12.495Z,9.13
2018-08-25T04:41:41.042Z,7.63
2018-08-25T04:44:10.069Z,8.33
2018-08-25T04:46:39.146Z,7.43
2018-08-25T04:49:08.001Z,9.13
2018-08-25T04:51:36.554Z,11.70
2018-08-25T04:54:05.170Z,11.23
2018-08-25T04:56:35.022Z,10.63
2018-08-25T04:59:03.543Z,11.87
2018-08-25T05:01:32.416Z,9.63
2018-08-25T05:04:01.223Z,9.37
2018-08-25T05:06:30.063Z,9.83
2018-08-25T05:08:59.722Z,9.97
2018-08-25T05:11:28.323Z,13.40
2018-08-25T05:13:56.844Z,8.70
2018-08-25T05:16:25.436Z,9.03
2018-08-25T05:18:53.969Z,6.50
2018-08-25T05:21:22.619Z,9.53
2018-08-25T05:23:51.157Z,7.43
2018-08-25T05:26:20.109Z,7.77
2018-08-25T05:28:48.592Z,8.13
2018-08-25T05:31:17.584Z,7.17
2018-08-25T05:33:46.118Z,5.93
2018-08-25T05:36:14.742Z,6.77
2018-08-25T05:38:43.289Z,4.33
2018-08-25T05:41:11.808Z,3.87
2018-08-25T05:43:40.401Z,4.03
2018-08-25T05:46:09.185Z,3.33
2018-08-25T05:48:37.998Z,3.17
2018-08-25T05:51:07.076Z,5.47
2018-08-25T05:53:35.581Z,6.67
2018-08-25T05:56:04.113Z,4.43
2018-08-25T05:58:32.984Z,4.57
2018-08-25T06:01:01.625Z,3.50
2018-08-25T06:03:30.364Z,3.50
2018-08-25T06:05:58.895Z,3.93
2018-08-25T06:08:27.396Z,4.10
2018-08-25T06:10:55.964Z,3.97
2018-08-25T06:13:24.502Z,4.23
2018-08-25T06:15:52.971Z,4.43
2018-08-25T06:18:21.504Z,5.27
2018-08-25T06:20:50.159Z,4.03
2018-08-25T06:23:18.756Z,5.27
2018-08-25T06:25:47.432Z,5.07
2018-08-25T06:28:15.964Z,4.90
2018-08-25T06:30:44.857Z,4.73
2018-08-25T06:33:13.368Z,4.57
2018-08-25T06:35:41.936Z,5.30
2018-08-25T06:38:10.426Z,5.00
2018-08-25T06:40:39.841Z,5.50
2018-08-25T06:43:08.421Z,9.03
2018-08-25T06:45:37.038Z,4.70
2018-08-25T06:48:05.703Z,4.90
2018-08-25T06:50:34.342Z,5.43
2018-08-25T06:53:02.878Z,5.57
2018-08-25T06:55:31.710Z,5.63
2018-08-25T06:58:00.213Z,5.70
2018-08-25T07:00:28.901Z,5.70
2018-08-25T07:02:57.432Z,5.53
2018-08-25T07:05:25.961Z,5.13
2018-08-25T07:07:54.450Z,4.77
2018-08-25T07:10:23.401Z,4.97
2018-08-25T07:12:51.908Z,4.40
2018-08-25T07:15:20.404Z,3.77
2018-08-25T07:17:48.892Z,4.47
2018-08-25T07:20:17.445Z,4.73
2018-08-25T07:22:45.971Z,5.07
2018-08-25T07:25:14.446Z,4.77
2018-08-25T07:27:44.990Z,3.57
2018-08-25T07:30:13.483Z,3.43
2018-08-25T07:32:41.958Z,3.70
2018-08-25T07:35:10.514Z,4.10
2018-08-25T07:37:39.109Z,4.27
2018-08-25T07:40:07.790Z,3.20
2018-08-25T07:42:36.433Z,4.20
2018-08-25T07:45:05.034Z,3.37
2018-08-25T07:47:33.554Z,3.77
2018-08-25T07:50:02.123Z,3.17
2018-08-25T07:52:30.605Z,2.97
2018-08-25T07:54:59.207Z,2.80
2018-08-25T07:57:27.981Z,2.47
2018-08-25T07:59:56.558Z,2.60
2018-08-25T08:02:25.245Z,2.33
2018-08-25T08:04:54.456Z,1.80
2018-08-25T08:07:23.051Z,1.70
2018-08-25T08:09:51.718Z,1.83
2018-08-25T08:12:20.306Z,2.70
2018-08-25T08:14:48.994Z,1.50
2018-08-25T08:17:17.599Z,1.60
2018-08-25T08:19:46.078Z,2.20
2018-08-25T08:22:14.608Z,1.40
2018-08-25T08:24:43.172Z,1.50
2018-08-25T08:27:11.809Z,1.50
2018-08-25T08:29:40.470Z,2.33
2018-08-25T08:32:09.165Z,1.67
2018-08-25T08:34:38.071Z,2.57
2018-08-25T08:37:07.376Z,2.13
2018-08-25T08:39:37.642Z,1.33
2018-08-25T08:42:06.151Z,1.67
2018-08-25T08:44:34.744Z,1.80
2018-08-25T08:47:03.530Z,2.23
2018-08-25T08:49:32.109Z,1.23
2018-08-25T08:52:00.694Z,1.63
2018-08-25T08:54:29.234Z,2.27
2018-08-25T08:56:58.063Z,2.70
2018-08-25T08:59:26.670Z,2.43
2018-08-25T09:01:55.169Z,1.77
2018-08-25T09:04:23.771Z,1.20
2018-08-25T09:06:52.438Z,1.30
2018-08-25T09:09:20.983Z,1.43
2018-08-25T09:11:49.551Z,1.30
2018-08-25T09:14:18.128Z,2.20
2018-08-25T09:16:46.697Z,1.40
2018-08-25T09:19:15.228Z,1.50
2018-08-25T09:21:43.907Z,1.30
2018-08-25T09:24:12.462Z,1.97
2018-08-25T09:26:41.048Z,1.60
2018-08-25T09:29:09.542Z,1.60
2018-08-25T09:31:38.085Z,1.30
2018-08-25T09:34:06.674Z,1.73
2018-08-25T09:36:35.497Z,1.80
2018-08-25T09:39:04.447Z,1.50
2018-08-25T09:41:33.301Z,2.53
2018-08-25T09:44:01.820Z,1.60
2018-08-25T09:46:30.781Z,2.20
2018-08-25T09:48:59.279Z,1.23
2018-08-25T09:51:28.013Z,2.60
2018-08-25T09:53:56.687Z,1.47
2018-08-25T09:56:25.179Z,1.53
2018-08-25T09:58:53.964Z,1.30
2018-08-25T10:01:27.959Z,1.53
2018-08-25T10:03:56.557Z,1.70
2018-08-25T10:06:25.306Z,1.47
2018-08-25T10:08:54.274Z,1.67
2018-08-25T10:11:23.337Z,2.80
2018-08-25T10:13:51.892Z,1.30
2018-08-25T10:16:20.561Z,1.40
2018-08-25T10:18:49.153Z,3.03
2018-08-25T10:21:17.684Z,1.20
2018-08-25T10:23:46.254Z,1.73
2018-08-25T10:26:14.850Z,1.93
2018-08-25T10:28:43.463Z,2.10
2018-08-25T10:31:11.962Z,2.57
2018-08-25T10:33:40.584Z,1.60
2018-08-25T10:36:09.077Z,2.20
2018-08-25T10:38:37.694Z,1.40
2018-08-25T10:41:06.582Z,1.60
2018-08-25T10:43:35.169Z,3.97
2018-08-25T10:46:03.696Z,1.73
2018-08-25T10:48:32.238Z,1.70
2018-08-25T10:51:01.513Z,1.77
2018-08-25T10:53:30.024Z,2.90
2018-08-25T10:55:58.887Z,1.90
2018-08-25T10:58:27.364Z,1.77
2018-08-25T11:00:56.006Z,2.70
2018-08-25T11:03:24.425Z,2.40
2018-08-25T11:05:52.929Z,2.43
2018-08-25T11:08:21.406Z,1.57
2018-08-25T11:10:49.953Z,3.20
2018-08-25T11:13:18.495Z,3.33
2018-08-25T11:15:47.026Z,2.10
2018-08-25T11:18:15.501Z,3.33
2018-08-25T11:20:44.082Z,2.50
2018-08-25T11:23:12.718Z,3.00
2018-08-25T11:25:41.349Z,2.77
2018-08-25T11:28:10.018Z,2.20
2018-08-25T11:30:38.617Z,3.63
2018-08-25T11:33:07.198Z,2.47
2018-08-25T11:35:35.802Z,2.80
2018-08-25T11:38:04.421Z,5.43
2018-08-25T11:40:32.951Z,2.70
2018-08-25T11:43:02.670Z,3.53
2018-08-25T11:45:31.458Z,4.60
2018-08-25T11:48:00.059Z,2.83
2018-08-25T11:50:28.758Z,7.40
2018-08-25T11:52:57.406Z,3.87
2018-08-25T11:55:25.978Z,1.67
2018-08-25T11:57:54.603Z,4.07
2018-08-25T12:00:23.185Z,2.57
2018-08-25T12:02:51.847Z,3.33
2018-08-25T12:05:20.356Z,5.23
2018-08-25T12:07:48.897Z,3.93
2018-08-25T12:10:18.005Z,6.33
2018-08-25T12:12:46.515Z,5.80
2018-08-25T12:15:15.155Z,3.53
2018-08-25T12:17:43.944Z,3.23
2018-08-25T12:20:12.572Z,3.93
2018-08-25T12:22:41.106Z,2.83
2018-08-25T12:25:09.977Z,2.50
2018-08-25T12:27:38.457Z,3.07
2018-08-25T12:30:07.532Z,3.03
2018-08-25T12:32:36.042Z,5.17
2018-08-25T12:35:04.725Z,2.77
2018-08-25T12:37:33.270Z,4.67
2018-08-25T12:40:01.872Z,2.53
2018-08-25T12:42:30.349Z,3.43
2018-08-25T12:44:58.940Z,6.93
2018-08-25T12:47:28.060Z,4.57
2018-08-25T12:49:57.894Z,4.53
2018-08-25T12:52:26.465Z,2.37
2018-08-25T12:54:54.995Z,2.00
2018-08-25T12:57:23.719Z,2.13
2018-08-25T12:59:52.242Z,2.40
2018-08-25T13:02:21.040Z,2.77
2018-08-25T13:04:49.567Z,2.73
2018-08-25T13:07:18.054Z,2.90
2018-08-25T13:09:46.797Z,4.07
2018-08-25T13:12:15.286Z,2.40
2018-08-25T13:14:44.370Z,2.10
2018-08-25T13:17:12.921Z,2.10
2018-08-25T13:19:41.489Z,1.60
2018-08-25T13:22:10.182Z,3.30
2018-08-25T13:24:38.717Z,2.00
2018-08-25T13:27:07.314Z,1.83
2018-08-25T13:29:35.825Z,1.80
2018-08-25T13:32:06.986Z,2.23
2018-08-25T13:34:35.472Z,2.83
2018-08-25T13:37:04.076Z,2.43
2018-08-25T13:39:33.666Z,3.23
2018-08-25T13:42:02.157Z,1.63
2018-08-25T13:44:30.790Z,4.87
2018-08-25T13:46:59.344Z,5.80
2018-08-25T13:49:28.671Z,3.03
2018-08-25T13:51:57.179Z,5.30
2018-08-25T13:54:25.817Z,2.50
2018-08-25T13:56:54.313Z,2.53
2018-08-25T13:59:22.842Z,2.40
2018-08-25T14:01:51.439Z,2.93
2018-08-25T14:04:20.131Z,3.87
2018-08-25T14:06:48.673Z,3.90
2018-08-25T14:09:17.273Z,5.77
2018-08-25T14:11:45.748Z,4.83
2018-08-25T14:14:14.412Z,4.23
2018-08-25T14:16:42.943Z,6.30
2018-08-25T14:19:11.528Z,3.73
2018-08-25T14:21:40.097Z,3.63
2018-08-25T14:24:08.624Z,3.67
2018-08-25T14:26:37.224Z,4.90
2018-08-25T14:29:05.974Z,3.83
2018-08-25T14:31:34.467Z,2.37
2018-08-25T14:34:03.515Z,2.40
2018-08-25T14:36:32.075Z,2.80
2018-08-25T14:39:00.681Z,3.53
2018-08-25T14:41:29.289Z,5.10
2018-08-25T14:43:58.328Z,3.70
2018-08-25T14:46:26.848Z,3.57
2018-08-25T14:48:55.332Z,3.73
2018-08-25T14:51:23.843Z,4.50
2018-08-25T14:53:52.374Z,4.20
2018-08-25T14:56:20.917Z,3.77
2018-08-25T14:58:49.435Z,2.33
2018-08-25T15:01:18.046Z,3.97
2018-08-25T15:03:46.617Z,5.17
2018-08-25T15:06:15.190Z,4.30
2018-08-25T15:08:43.778Z,5.60
2018-08-25T15:11:12.293Z,3.63
2018-08-25T15:13:40.947Z,3.07
2018-08-25T15:16:09.552Z,2.97
2018-08-25T15:18:38.088Z,2.40
2018-08-25T15:21:06.819Z,2.40
2018-08-25T15:23:35.508Z,2.53
2018-08-25T15:26:05.009Z,3.37
2018-08-25T15:28:33.798Z,3.13
2018-08-25T15:31:02.714Z,5.23
2018-08-25T15:33:31.437Z,2.83
2018-08-25T15:35:59.932Z,2.60
2018-08-25T15:38:28.535Z,2.07
2018-08-25T15:40:57.001Z,2.43
2018-08-25T15:43:25.545Z,2.00
2018-08-25T15:45:54.176Z,2.20
2018-08-25T15:48:22.825Z,2.87
2018-08-25T15:50:51.373Z,1.40
2018-08-25T15:53:19.898Z,1.53
2018-08-25T15:55:48.517Z,1.40
2018-08-25T15:58:17.067Z,1.23
2018-08-25T16:00:45.628Z,2.20
2018-08-25T16:03:14.150Z,2.03
2018-08-25T16:05:42.875Z,4.37
2018-08-25T16:08:11.671Z,1.33
2018-08-25T16:10:40.224Z,1.77
2018-08-25T16:13:08.808Z,1.67
2018-08-25T16:15:37.847Z,3.27
2018-08-25T16:18:06.476Z,1.70
2018-08-25T16:20:35.156Z,1.80
2018-08-25T16:23:03.910Z,2.13
2018-08-25T16:25:32.868Z,3.00
2018-08-25T16:28:01.341Z,2.00
2018-08-25T16:30:29.861Z,2.80
2018-08-25T16:32:58.361Z,2.33
2018-08-25T16:35:26.874Z,1.83
2018-08-25T16:37:55.447Z,2.23
2018-08-25T16:40:24.373Z,1.30
2018-08-25T16:42:52.911Z,2.47
2018-08-25T16:45:21.409Z,2.10
2018-08-25T16:47:49.925Z,1.10
2018-08-25T16:50:18.410Z,2.53
2018-08-25T16:52:47.141Z,1.40
2018-08-25T16:55:15.742Z,1.93
2018-08-25T16:57:44.256Z,1.30
2018-08-25T17:00:12.861Z,2.27
2018-08-25T17:02:41.372Z,1.93
2018-08-25T17:05:09.965Z,2.23
2018-08-25T17:07:38.585Z,1.77
2018-08-25T17:10:07.252Z,2.60
2018-08-25T17:12:35.909Z,2.10
2018-08-25T17:15:05.143Z,3.43
2018-08-25T17:17:33.771Z,1.53
2018-08-25T17:20:02.523Z,2.10
2018-08-25T17:22:31.439Z,1.93
2018-08-25T17:24:59.981Z,1.67
2018-08-25T17:27:28.662Z,1.47
2018-08-25T17:29:57.703Z,1.37
2018-08-25T17:32:27.297Z,1.87
2018-08-25T17:34:55.855Z,1.87
2018-08-25T17:37:24.593Z,2.43
2018-08-25T17:39:53.247Z,2.97
2018-08-25T17:42:22.070Z,2.90
2018-08-25T17:44:50.610Z,2.33
2018-08-25T17:47:19.211Z,1.77
2018-08-25T17:49:47.761Z,2.03
2018-08-25T17:52:16.422Z,2.10
2018-08-25T17:54:44.932Z,2.60
2018-08-25T17:57:13.771Z,2.00
2018-08-25T17:59:42.302Z,3.13
2018-08-25T18:02:10.827Z,2.73
2018-08-25T18:04:39.369Z,3.77
2018-08-25T18:07:07.944Z,4.43
2018-08-25T18:09:36.774Z,3.57
2018-08-25T18:12:05.396Z,4.93
2018-08-25T18:14:34.006Z,1.60
2018-08-25T18:17:02.751Z,4.90
2018-08-25T18:19:31.365Z,4.73
2018-08-25T18:21:59.960Z,3.40
2018-08-25T18:24:28.475Z,3.27
2018-08-25T18:26:57.412Z,3.70
2018-08-25T18:29:26.417Z,6.43
2018-08-25T18:31:55.014Z,3.50
2018-08-25T18:34:23.581Z,4.93
2018-08-25T18:36:52.499Z,7.23
2018-08-25T18:39:20.984Z,3.80
2018-08-25T18:41:49.483Z,4.23
2018-08-25T18:44:17.989Z,2.53
2018-08-25T18:46:46.535Z,2.63
2018-08-25T18:49:15.101Z,2.30
2018-08-25T18:51:43.618Z,2.87
2018-08-25T18:54:12.140Z,2.43
2018-08-25T18:56:40.628Z,2.03
2018-08-25T18:59:09.276Z,2.87
2018-08-25T19:01:37.864Z,2.27
2018-08-25T19:04:06.783Z,3.97
2018-08-25T19:06:35.333Z,1.83
2018-08-25T19:09:05.153Z,2.73
2018-08-25T19:11:34.062Z,4.73
2018-08-25T19:14:02.637Z,3.07
2018-08-25T19:16:31.170Z,2.90
2018-08-25T19:18:59.767Z,4.27
2018-08-25T19:21:28.276Z,2.53
2018-08-25T19:23:56.797Z,4.50
2018-08-25T19:26:25.287Z,4.87
2018-08-25T19:28:53.888Z,2.80
2018-08-25T19:31:22.478Z,5.60
2018-08-25T19:33:51.252Z,2.90
2018-08-25T19:36:20.091Z,3.97
2018-08-25T19:38:48.689Z,4.13
2018-08-25T19:41:18.159Z,3.37
2018-08-25T19:43:46.774Z,6.10
2018-08-25T19:46:15.355Z,3.50
2018-08-25T19:48:43.948Z,4.97
2018-08-25T19:51:12.894Z,4.73
2018-08-25T19:53:41.461Z,3.60
2018-08-25T19:56:10.171Z,4.03
2018-08-25T19:58:38.917Z,2.60
2018-08-25T20:01:07.562Z,2.87
2018-08-25T20:03:36.051Z,4.07
2018-08-25T20:06:04.644Z,5.23
2018-08-25T20:08:33.119Z,3.07
2018-08-25T20:11:01.782Z,4.13
2018-08-25T20:13:30.487Z,3.47
2018-08-25T20:15:59.012Z,3.13
2018-08-25T20:18:27.629Z,5.23
2018-08-25T20:20:56.433Z,4.83
2018-08-25T20:23:24.884Z,3.53
2018-08-25T20:25:53.426Z,3.40
2018-08-25T20:28:21.916Z,3.67
2018-08-25T20:30:50.780Z,3.90
2018-08-25T20:33:19.248Z,6.00
2018-08-25T20:35:48.017Z,4.00
2018-08-25T20:38:16.453Z,5.93
2018-08-25T20:40:45.026Z,3.43
2018-08-25T20:43:13.571Z,6.83
2018-08-25T20:45:42.167Z,7.03
2018-08-25T20:48:10.767Z,6.43
2018-08-25T20:50:39.652Z,10.50
2018-08-25T20:53:08.484Z,6.30
2018-08-25T20:55:37.160Z,4.20
2018-08-25T20:58:06.265Z,8.27
2018-08-25T21:00:34.890Z,3.93
2018-08-25T21:03:03.466Z,5.13
2018-08-25T21:05:31.964Z,4.90
2018-08-25T21:08:00.509Z,5.90
2018-08-25T21:10:29.068Z,5.63
2018-08-25T21:12:57.617Z,3.63
2018-08-25T21:15:26.185Z,6.97
2018-08-25T21:17:55.353Z,6.17
2018-08-25T21:20:23.874Z,8.57
2018-08-25T21:22:52.404Z,5.00
2018-08-25T21:25:21.258Z,4.53
2018-08-25T21:27:49.769Z,4.23
2018-08-25T21:30:18.516Z,5.77
2018-08-25T21:32:47.193Z,4.47
2018-08-25T21:35:15.705Z,4.77
2018-08-25T21:37:44.436Z,9.40
2018-08-25T21:40:12.952Z,4.43
2018-08-25T21:42:41.677Z,6.63
2018-08-25T21:45:10.313Z,6.03
2018-08-25T21:47:38.906Z,6.77
2018-08-25T21:50:07.970Z,6.57
2018-08-25T21:52:36.511Z,8.00
2018-08-25T21:55:05.053Z,7.57
2018-08-25T21:57:33.664Z,7.47
2018-08-25T22:00:02.352Z,4.20
2018-08-25T22:02:31.150Z,7.23
2018-08-25T22:04:59.678Z,5.90
2018-08-25T22:07:28.305Z,5.93
2018-08-25T22:09:56.897Z,6.93
2018-08-25T22:12:25.396Z,6.60
2018-08-25T22:14:54.110Z,7.63
2018-08-25T22:17:22.690Z,6.33
2018-08-25T22:19:51.163Z,5.23
2018-08-25T22:22:19.696Z,9.20
2018-08-25T22:24:48.380Z,5.63
2018-08-25T22:27:17.456Z,7.13
2018-08-25T22:29:46.073Z,7.27
2018-08-25T22:32:15.832Z,6.73
2018-08-25T22:34:44.295Z,7.57
2018-08-25T22:37:13.192Z,5.60
2018-08-25T22:39:41.714Z,8.10
2018-08-25T22:42:10.203Z,6.40
2018-08-25T22:44:38.734Z,9.30
2018-08-25T22:47:07.278Z,6.87
2018-08-25T22:49:35.817Z,6.37
2018-08-25T22:52:04.473Z,5.83
2018-08-25T22:54:32.977Z,8.13
2018-08-25T22:57:01.555Z,6.10
2018-08-25T22:59:30.465Z,7.57
2018-08-25T23:01:59.040Z,8.00
2018-08-25T23:04:27.923Z,11.03
2018-08-25T23:06:56.447Z,8.23
2018-08-25T23:09:25.523Z,6.80
2018-08-25T23:11:54.125Z,7.80
2018-08-25T23:14:22.945Z,9.67
2018-08-25T23:16:51.419Z,6.43
2018-08-25T23:19:19.941Z,6.50
2018-08-25T23:21:48.575Z,5.37
2018-08-25T23:24:17.103Z,6.13
2018-08-25T23:26:45.590Z,6.47
2018-08-25T23:29:14.092Z,5.87
2018-08-25T23:31:42.738Z,6.73
2018-08-25T23:34:11.227Z,6.77
2018-08-25T23:36:39.832Z,6.93
2018-08-25T23:39:09.460Z,7.40
2018-08-25T23:41:38.040Z,6.77
2018-08-25T23:44:06.709Z,8.10
2018-08-25T23:46:35.305Z,5.80
2018-08-25T23:49:04.090Z,6.50
2018-08-25T23:51:32.678Z,4.93
2018-08-25T23:54:01.232Z,4.77
2018-08-25T23:56:29.746Z,6.93
2018-08-25T23:58:58.307Z,7.03
